Time;durP1;ratioP1;P1;durP2;ratioP2;P2;SDS_P1;SDS_P2;PMS_P1;PMS_P2;Temp;Humidity;BMP_temperature;BMP_pressure;BME280_temperature;BME280_humidity;BME280_pressure;Samples;Min_cycle;Max_cycle;Signal;HPM_P1;HPM_P2
2023/04/02 00:01:22;;;;;;;16.85;3.13;;;8.90;99.90;;;;;;5110591;28;20508;-73
2023/04/02 00:03:52;;;;;;;14.25;3.17;;;8.90;99.90;;;;;;5111328;28;20096;-73
2023/04/02 00:06:33;;;;;;;16.15;3.40;;;8.90;99.90;;;;;;5110607;28;20432;-76
2023/04/02 00:09:20;;;;;;;14.05;3.42;;;8.90;99.90;;;;;;5111246;28;20023;-75
2023/04/02 00:11:49;;;;;;;11.77;4.32;;;8.90;99.90;;;;;;5110955;28;20106;-73
2023/04/02 00:14:27;;;;;;;15.13;3.47;;;8.90;99.90;;;;;;5110254;28;20031;-73
2023/04/02 00:16:54;;;;;;;12.05;3.70;;;8.90;99.90;;;;;;5111049;28;20042;-73
2023/04/02 00:19:59;;;;;;;7.55;3.53;;;9.00;99.90;;;;;;5110315;28;20024;-73
2023/04/02 00:22:31;;;;;;;17.48;3.90;;;9.00;99.90;;;;;;5110371;28;20056;-73
2023/04/02 00:25:00;;;;;;;15.18;4.35;;;9.00;99.90;;;;;;5110593;28;20107;-73
2023/04/02 00:27:26;;;;;;;11.20;3.40;;;9.00;99.90;;;;;;5110374;28;20031;-73
2023/04/02 00:29:54;;;;;;;17.02;3.80;;;9.00;99.90;;;;;;5110728;28;20069;-74
2023/04/02 00:32:46;;;;;;;13.70;3.20;;;9.00;99.90;;;;;;5110686;28;20051;-74
2023/04/02 00:35:21;;;;;;;10.90;2.40;;;9.00;99.90;;;;;;5105681;28;20040;-78
2023/04/02 00:37:48;;;;;;;8.43;3.55;;;9.00;99.90;;;;;;5111262;28;20068;-74
2023/04/02 00:40:18;;;;;;;15.50;6.53;;;9.00;99.90;;;;;;5110717;28;20031;-75
2023/04/02 00:42:45;;;;;;;18.50;9.60;;;9.00;99.90;;;;;;5111004;28;20049;-74
2023/04/02 00:45:34;;;;;;;16.58;6.82;;;9.00;99.90;;;;;;5110703;28;20050;-79
2023/04/02 00:48:24;;;;;;;17.75;7.00;;;9.00;99.90;;;;;;5110923;28;20028;-74
2023/04/02 00:50:53;;;;;;;14.50;4.32;;;9.00;99.90;;;;;;5111238;28;20143;-74
2023/04/02 00:53:27;;;;;;;16.98;4.30;;;9.00;99.90;;;;;;5110756;28;20042;-74
2023/04/02 00:55:54;;;;;;;9.75;3.42;;;9.00;99.90;;;;;;5111203;28;20417;-73
2023/04/02 00:58:35;;;;;;;9.75;5.40;;;9.00;99.90;;;;;;5111226;28;20445;-74
2023/04/02 01:01:01;;;;;;;16.17;6.32;;;9.00;99.90;;;;;;5110691;28;20051;-73
2023/04/02 01:03:36;;;;;;;11.52;3.72;;;9.00;99.90;;;;;;5110278;28;20432;-74
2023/04/02 01:06:15;;;;;;;12.80;4.05;;;9.00;99.90;;;;;;5111159;28;20031;-74
2023/04/02 01:09:13;;;;;;;16.55;6.70;;;9.00;99.90;;;;;;5110954;28;20386;-75
2023/04/02 01:12:20;;;;;;;12.00;3.65;;;9.00;99.90;;;;;;5110961;28;20123;-74
2023/04/02 01:15:06;;;;;;;21.77;11.75;;;9.00;99.90;;;;;;5007923;28;20038;-74
2023/04/02 01:17:53;;;;;;;22.45;12.57;;;8.90;99.90;;;;;;5103015;28;20032;-74
2023/04/02 01:20:40;;;;;;;28.80;15.27;;;8.90;99.90;;;;;;5110201;28;20027;-74
2023/04/02 01:23:27;;;;;;;11.45;3.22;;;8.90;99.90;;;;;;5110386;28;20472;-74
2023/04/02 01:26:10;;;;;;;10.43;5.32;;;8.80;99.90;;;;;;5110746;28;20157;-74
2023/04/02 01:28:59;;;;;;;14.68;5.25;;;8.80;99.90;;;;;;5110226;28;20028;-74
2023/04/02 01:31:26;;;;;;;11.73;2.97;;;8.80;99.90;;;;;;5109931;28;20081;-74
2023/04/02 01:33:52;;;;;;;11.50;3.95;;;8.90;99.90;;;;;;5110826;28;20049;-74
2023/04/02 01:36:46;;;;;;;13.90;4.43;;;8.90;99.90;;;;;;5109848;28;20028;-75
2023/04/02 01:39:42;;;;;;;13.65;3.13;;;8.90;99.90;;;;;;5114248;28;20023;-74
2023/04/02 01:42:16;;;;;;;8.38;2.70;;;8.80;99.90;;;;;;5114438;28;20524;-74
2023/04/02 01:44:47;;;;;;;9.10;2.15;;;8.90;99.90;;;;;;5114869;28;20060;-74
2023/04/02 01:47:16;;;;;;;10.23;2.47;;;8.90;99.90;;;;;;5114196;28;20022;-74
2023/04/02 01:49:43;;;;;;;9.38;2.30;;;8.90;99.90;;;;;;5113981;28;20147;-74
2023/04/02 01:52:16;;;;;;;11.23;2.70;;;8.90;99.90;;;;;;5095840;28;20387;-75
2023/04/02 01:54:46;;;;;;;12.38;2.50;;;8.90;99.90;;;;;;5114242;28;20027;-74
2023/04/02 01:57:12;;;;;;;15.30;3.40;;;8.90;99.90;;;;;;5113992;28;20032;-74
2023/04/02 01:59:39;;;;;;;8.70;2.20;;;8.90;99.90;;;;;;5113522;28;20128;-73
2023/04/02 02:02:08;;;;;;;10.85;2.90;;;8.90;99.90;;;;;;5114102;28;20098;-73
2023/04/02 02:04:34;;;;;;;6.60;2.20;;;8.90;99.90;;;;;;5113768;28;20042;-74
2023/04/02 02:07:01;;;;;;;10.55;2.80;;;8.90;99.90;;;;;;5113961;28;20519;-73
2023/04/02 02:09:31;;;;;;;11.32;2.95;;;8.90;99.90;;;;;;5095238;28;20024;-74
2023/04/02 02:11:58;;;;;;;9.32;2.45;;;8.90;99.90;;;;;;5113880;28;20110;-74
2023/04/02 02:14:26;;;;;;;12.40;2.28;;;8.90;99.90;;;;;;5113098;28;20077;-74
2023/04/02 02:17:00;;;;;;;10.32;2.75;;;8.90;99.90;;;;;;5113858;28;20038;-75
2023/04/02 02:19:40;;;;;;;8.48;2.63;;;8.90;99.90;;;;;;5112958;28;20036;-74
2023/04/02 02:22:28;;;;;;;6.32;1.92;;;8.90;99.90;;;;;;5113495;28;20047;-74
2023/04/02 02:24:56;;;;;;;11.60;2.72;;;8.90;99.90;;;;;;5113643;28;20027;-74
2023/04/02 02:27:21;;;;;;;11.73;2.30;;;8.90;99.90;;;;;;5113337;28;20019;-74
2023/04/02 02:30:04;;;;;;;10.38;2.47;;;8.80;99.90;;;;;;5113645;28;20453;-74
2023/04/02 02:32:31;;;;;;;9.27;2.40;;;8.80;99.90;;;;;;5112695;28;20036;-74
2023/04/02 02:35:43;;;;;;;9.52;2.50;;;8.70;99.90;;;;;;5113238;28;20027;-74
2023/04/02 02:38:25;;;;;;;10.50;2.45;;;8.70;99.90;;;;;;5099652;28;20039;-74
2023/04/02 02:40:55;;;;;;;9.83;2.57;;;8.70;99.90;;;;;;5113607;28;20034;-74
2023/04/02 02:43:21;;;;;;;11.63;2.60;;;8.70;99.90;;;;;;5112557;28;20027;-79
2023/04/02 02:45:48;;;;;;;9.93;2.50;;;8.70;99.90;;;;;;5113636;28;20518;-74
2023/04/02 02:48:20;;;;;;;10.23;2.72;;;8.80;99.90;;;;;;5112727;28;20107;-73
2023/04/02 02:50:46;;;;;;;7.13;1.77;;;8.70;99.90;;;;;;5112378;28;20039;-74
2023/04/02 02:53:21;;;;;;;10.40;2.72;;;8.70;99.90;;;;;;5112913;28;20024;-73
2023/04/02 02:55:52;;;;;;;11.63;2.75;;;8.70;99.90;;;;;;5112806;28;20028;-74
2023/04/02 02:58:22;;;;;;;9.40;2.40;;;8.70;99.90;;;;;;5113203;28;20031;-74
2023/04/02 03:00:49;;;;;;;8.85;2.03;;;8.60;99.90;;;;;;5112815;28;20035;-74
2023/04/02 03:03:25;;;;;;;10.93;2.35;;;8.60;99.90;;;;;;5113089;28;20100;-74
2023/04/02 03:06:01;;;;;;;12.15;2.55;;;8.60;99.90;;;;;;5112996;28;20069;-74
2023/04/02 03:08:52;;;;;;;9.32;2.50;;;8.60;99.90;;;;;;5094030;28;20427;-73
2023/04/02 03:11:27;;;;;;;9.40;2.30;;;8.60;99.90;;;;;;5112937;28;20530;-73
2023/04/02 03:14:02;;;;;;;11.93;2.63;;;8.60;99.90;;;;;;5112725;28;20136;-73
2023/04/02 03:16:37;;;;;;;9.32;2.45;;;8.60;99.90;;;;;;5112258;28;20028;-74
2023/04/02 03:19:21;;;;;;;12.68;2.38;;;8.60;99.90;;;;;;5112941;28;20414;-73
2023/04/02 03:21:50;;;;;;;11.32;2.35;;;8.50;99.90;;;;;;5112223;28;20543;-74
2023/04/02 03:24:42;;;;;;;9.30;2.80;;;8.50;99.90;;;;;;5112648;28;20050;-73
2023/04/02 03:27:21;;;;;;;8.05;2.33;;;8.60;99.90;;;;;;5122134;27;20092;-74
2023/04/02 03:30:22;;;;;;;11.30;2.90;;;8.50;99.90;;;;;;5132600;27;20050;-74
2023/04/02 03:32:53;;;;;;;10.50;2.83;;;8.50;99.90;;;;;;5125057;27;20043;-73
2023/04/02 03:35:27;;;;;;;14.10;2.47;;;8.40;99.90;;;;;;5133044;27;20524;-74
2023/04/02 03:38:00;;;;;;;12.43;2.97;;;8.50;99.90;;;;;;5114459;27;20536;-74
2023/04/02 03:40:42;;;;;;;9.57;2.08;;;8.50;99.90;;;;;;5132497;27;20027;-75
2023/04/02 03:43:24;;;;;;;11.80;2.90;;;8.50;99.90;;;;;;5133291;27;20033;-73
2023/04/02 03:45:56;;;;;;;5.53;1.70;;;8.40;99.90;;;;;;5132504;27;20098;-73
2023/04/02 03:48:41;;;;;;;7.55;2.05;;;8.40;99.90;;;;;;5132934;27;20061;-73
2023/04/02 03:51:32;;;;;;;8.60;1.80;;;8.40;99.90;;;;;;5114006;27;20080;-73
2023/04/02 03:53:59;;;;;;;11.20;2.15;;;8.40;99.90;;;;;;5132713;27;20447;-72
2023/04/02 03:56:26;;;;;;;10.18;1.92;;;8.40;99.90;;;;;;5132308;27;20416;-79
2023/04/02 03:59:06;;;;;;;6.57;2.20;;;8.30;99.90;;;;;;5132295;27;20070;-73
2023/04/02 04:01:37;;;;;;;8.13;2.50;;;8.40;99.90;;;;;;5131342;27;20023;-74
2023/04/02 04:04:13;;;;;;;10.23;2.13;;;8.30;99.90;;;;;;5132529;27;20457;-73
2023/04/02 04:06:45;;;;;;;8.38;1.98;;;8.30;99.90;;;;;;5132020;27;20174;-74
2023/04/02 04:09:23;;;;;;;7.53;2.13;;;8.20;99.90;;;;;;5132226;27;20031;-73
2023/04/02 04:11:52;;;;;;;8.70;2.33;;;8.30;99.90;;;;;;5132077;27;20027;-74
2023/04/02 04:14:39;;;;;;;6.85;2.00;;;8.30;99.90;;;;;;5132556;27;20046;-73
2023/04/02 04:17:12;;;;;;;8.68;2.05;;;8.30;99.90;;;;;;5112874;27;20122;-74
2023/04/02 04:19:44;;;;;;;7.90;2.13;;;8.20;99.90;;;;;;5131653;27;20072;-74
2023/04/02 04:22:29;;;;;;;7.30;1.95;;;8.20;99.90;;;;;;5132133;27;20050;-73
2023/04/02 04:24:57;;;;;;;6.53;2.28;;;8.20;99.90;;;;;;5132528;27;20053;-73
2023/04/02 04:27:45;;;;;;;7.80;2.40;;;8.20;99.90;;;;;;5131786;27;20446;-74
2023/04/02 04:30:21;;;;;;;6.05;1.80;;;8.10;99.90;;;;;;5131582;27;20468;-74
2023/04/02 04:33:02;;;;;;;15.68;2.40;;;8.10;99.90;;;;;;5131413;27;20118;-74
2023/04/02 04:35:38;;;;;;;13.30;2.50;;;8.10;99.90;;;;;;5131729;27;20026;-79
2023/04/02 04:38:26;;;;;;;6.22;1.90;;;8.10;99.90;;;;;;5131737;27;20383;-74
2023/04/02 04:40:59;;;;;;;11.23;2.67;;;8.10;99.90;;;;;;5131526;27;20117;-74
2023/04/02 04:43:31;;;;;;;8.20;2.00;;;8.10;99.90;;;;;;5131682;27;20521;-74
2023/04/02 04:46:05;;;;;;;7.22;2.10;;;8.10;99.90;;;;;;5131736;27;20518;-74
2023/04/02 04:49:03;;;;;;;7.38;2.20;;;8.20;99.90;;;;;;5131289;27;20147;-79
2023/04/02 04:51:53;;;;;;;7.15;2.30;;;8.10;99.90;;;;;;5124801;27;20415;-78
2023/04/02 04:54:19;;;;;;;10.32;2.65;;;8.10;99.90;;;;;;5131711;27;20034;-73
2023/04/02 04:56:53;;;;;;;10.13;2.60;;;8.00;99.90;;;;;;5131069;27;20027;-73
2023/04/02 04:59:31;;;;;;;8.30;3.25;;;8.10;99.90;;;;;;5131558;27;20019;-73
2023/04/02 05:02:10;;;;;;;11.98;2.97;;;8.10;99.90;;;;;;5131468;27;20069;-74
2023/04/02 05:04:41;;;;;;;10.70;3.40;;;8.00;99.90;;;;;;5112692;28;20028;-74
2023/04/02 05:07:16;;;;;;;5.22;2.20;;;8.00;99.90;;;;;;5131170;28;20072;-73
2023/04/02 05:10:03;;;;;;;8.02;2.28;;;8.00;99.90;;;;;;5130705;28;20104;-74
2023/04/02 05:12:35;;;;;;;12.20;2.67;;;8.00;99.90;;;;;;5132682;27;20127;-74
2023/04/02 05:15:23;;;;;;;9.88;2.97;;;8.00;99.90;;;;;;5135797;27;20437;-74
2023/04/02 05:18:12;;;;;;;10.48;2.55;;;8.00;99.90;;;;;;5135223;27;20075;-74
2023/04/02 05:21:19;;;;;;;10.00;3.22;;;8.00;99.90;;;;;;5116505;27;20110;-74
2023/04/02 05:23:58;;;;;;;9.40;2.78;;;8.00;99.90;;;;;;5086046;27;20047;-74
2023/04/02 05:26:36;;;;;;;12.90;2.65;;;8.00;99.90;;;;;;5135305;27;20416;-74
2023/04/02 05:29:10;;;;;;;13.85;3.47;;;8.00;99.90;;;;;;5135397;27;20031;-74
2023/04/02 05:31:45;;;;;;;7.25;2.38;;;7.90;99.90;;;;;;5134460;27;20324;-74
2023/04/02 05:34:12;;;;;;;6.60;2.97;;;7.90;99.90;;;;;;5135322;27;20035;-74
2023/04/02 05:36:38;;;;;;;10.60;3.03;;;7.90;99.90;;;;;;5134661;27;20378;-74
2023/04/02 05:39:09;;;;;;;8.30;2.50;;;7.90;99.90;;;;;;5134915;27;20526;-73
2023/04/02 05:41:40;;;;;;;10.77;2.63;;;8.00;99.90;;;;;;5134787;27;20317;-74
2023/04/02 05:44:21;;;;;;;8.27;2.95;;;8.00;99.90;;;;;;5135312;27;20023;-73
2023/04/02 05:47:03;;;;;;;13.05;2.80;;;8.00;99.90;;;;;;5134725;27;20050;-73
2023/04/02 05:49:44;;;;;;;6.85;3.00;;;8.00;99.90;;;;;;5135467;27;20028;-74
2023/04/02 05:52:22;;;;;;;13.10;3.33;;;8.00;99.90;;;;;;5135345;27;20035;-73
2023/04/02 05:55:18;;;;;;;6.78;3.17;;;8.00;99.90;;;;;;5134389;27;20027;-73
2023/04/02 05:57:59;;;;;;;9.07;3.17;;;7.90;99.90;;;;;;5133259;27;20031;-73
2023/04/02 06:00:36;;;;;;;10.68;3.28;;;7.90;99.90;;;;;;5134848;27;20565;-73
2023/04/02 06:03:26;;;;;;;10.18;3.17;;;7.90;99.90;;;;;;5134719;27;20440;-73
2023/04/02 06:05:55;;;;;;;9.40;3.00;;;8.00;99.90;;;;;;5080707;27;20035;-74
2023/04/02 06:08:34;;;;;;;9.77;3.05;;;8.00;99.90;;;;;;5134538;27;20106;-75
2023/04/02 06:11:09;;;;;;;5.95;3.13;;;8.00;99.90;;;;;;5134089;27;20023;-74
2023/04/02 06:13:35;;;;;;;9.02;3.35;;;8.10;99.90;;;;;;5133796;27;20054;-80
2023/04/02 06:16:01;;;;;;;7.35;3.33;;;8.00;99.90;;;;;;5115551;27;20031;-74
2023/04/02 06:18:30;;;;;;;8.95;3.40;;;8.00;99.90;;;;;;5134585;27;20375;-74
2023/04/02 06:20:56;;;;;;;10.68;3.47;;;8.00;99.90;;;;;;5114942;27;20103;-74
2023/04/02 06:23:37;;;;;;;13.20;3.20;;;8.00;99.90;;;;;;5133584;27;20055;-74
2023/04/02 06:26:10;;;;;;;6.25;2.92;;;8.00;99.90;;;;;;5134444;27;20038;-74
2023/04/02 06:29:05;;;;;;;7.65;3.65;;;8.10;99.90;;;;;;5133815;27;20094;-79
2023/04/02 06:31:58;;;;;;;11.43;3.13;;;8.10;99.90;;;;;;5134097;27;20458;-74
2023/04/02 06:34:27;;;;;;;12.13;3.20;;;8.10;99.90;;;;;;5134053;27;20027;-73
2023/04/02 06:36:58;;;;;;;11.52;3.20;;;8.10;99.90;;;;;;5130331;27;20027;-73
2023/04/02 06:39:26;;;;;;;7.95;3.15;;;8.10;99.90;;;;;;5113724;28;20035;-74
2023/04/02 06:42:15;;;;;;;11.80;3.92;;;8.20;99.90;;;;;;5112688;28;20020;-73
2023/04/02 06:44:42;;;;;;;11.02;3.95;;;8.20;99.90;;;;;;5124394;27;20031;-74
2023/04/02 06:47:37;;;;;;;10.20;3.58;;;8.20;99.90;;;;;;5133789;27;20039;-73
2023/04/02 06:50:06;;;;;;;10.20;3.13;;;8.20;99.90;;;;;;5133412;27;20106;-73
2023/04/02 06:52:54;;;;;;;6.50;3.17;;;8.20;99.90;;;;;;5133413;27;20035;-73
2023/04/02 06:55:19;;;;;;;7.78;2.90;;;8.20;99.90;;;;;;5133753;27;20019;-74
2023/04/02 06:57:46;;;;;;;10.43;3.20;;;8.20;99.90;;;;;;5114523;27;20023;-74
2023/04/02 07:00:40;;;;;;;12.20;3.42;;;8.20;99.90;;;;;;5133792;27;20019;-74
2023/04/02 07:03:27;;;;;;;8.07;3.53;;;8.30;99.90;;;;;;5123225;27;20035;-73
2023/04/02 07:05:54;;;;;;;19.58;3.97;;;8.20;99.90;;;;;;5131895;27;20047;-74
2023/04/02 07:08:20;;;;;;;16.30;3.10;;;8.20;99.90;;;;;;5133561;27;20431;-74
2023/04/02 07:10:46;;;;;;;9.18;3.60;;;8.20;99.90;;;;;;5132719;27;20057;-74
2023/04/02 07:13:16;;;;;;;10.48;3.67;;;8.30;99.90;;;;;;5133351;27;20058;-75
2023/04/02 07:15:45;;;;;;;13.10;5.90;;;8.30;99.90;;;;;;5132848;27;20033;-75
2023/04/02 07:18:32;;;;;;;7.15;3.20;;;8.40;99.90;;;;;;5132953;27;20505;-75
2023/04/02 07:20:58;;;;;;;9.32;3.45;;;8.40;99.90;;;;;;5132644;27;20031;-75
2023/04/02 07:23:25;;;;;;;7.43;3.65;;;8.40;99.90;;;;;;5132700;27;20051;-75
2023/04/02 07:25:53;;;;;;;9.57;3.50;;;8.40;99.90;;;;;;5132084;27;20423;-75
2023/04/02 07:28:19;;;;;;;10.77;4.43;;;8.40;99.90;;;;;;5132447;27;20027;-74
2023/04/02 07:30:45;;;;;;;7.57;3.92;;;8.40;99.90;;;;;;5132143;27;20031;-75
2023/04/02 07:33:19;;;;;;;8.40;3.17;;;8.50;99.90;;;;;;5132789;27;20035;-74
2023/04/02 07:35:46;;;;;;;11.07;3.85;;;8.50;99.90;;;;;;5131389;27;20471;-76
2023/04/02 07:38:12;;;;;;;7.88;3.15;;;8.40;99.90;;;;;;5132867;27;20555;-73
2023/04/02 07:40:38;;;;;;;8.88;3.55;;;8.50;99.90;;;;;;5132400;27;20114;-74
2023/04/02 07:43:05;;;;;;;8.80;3.30;;;8.60;99.90;;;;;;5131933;27;20084;-73
2023/04/02 07:45:31;;;;;;;6.40;3.20;;;8.60;99.90;;;;;;5132456;27;20102;-74
2023/04/02 07:48:02;;;;;;;12.40;4.03;;;8.70;99.90;;;;;;5131775;27;20464;-73
2023/04/02 07:50:29;;;;;;;9.45;3.35;;;8.80;99.90;;;;;;5132171;27;20051;-73
2023/04/02 07:52:55;;;;;;;10.82;3.15;;;8.80;99.90;;;;;;5131556;27;20506;-74
2023/04/02 07:55:21;;;;;;;8.90;3.70;;;8.80;99.90;;;;;;5132131;27;20031;-73
2023/04/02 07:57:53;;;;;;;7.82;3.10;;;9.00;99.90;;;;;;5131954;27;20093;-74
2023/04/02 08:00:20;;;;;;;9.73;3.13;;;8.90;99.90;;;;;;5132163;27;20027;-73
2023/04/02 08:02:46;;;;;;;5.90;3.30;;;9.00;99.90;;;;;;5131744;27;20054;-74
2023/04/02 08:05:12;;;;;;;11.30;3.90;;;9.00;99.90;;;;;;5132120;27;20027;-73
2023/04/02 08:07:38;;;;;;;9.60;3.60;;;8.90;99.90;;;;;;5131752;27;20019;-73
2023/04/02 08:10:05;;;;;;;9.07;3.63;;;9.00;99.90;;;;;;5131364;27;20019;-73
2023/04/02 08:12:31;;;;;;;11.00;3.75;;;9.10;99.90;;;;;;5131914;27;20038;-73
2023/04/02 08:14:57;;;;;;;11.57;3.97;;;9.10;99.90;;;;;;5131282;27;20110;-73
2023/04/02 08:17:23;;;;;;;7.85;3.83;;;9.10;99.90;;;;;;5132097;27;20515;-74
2023/04/02 08:19:49;;;;;;;9.48;4.25;;;9.10;99.90;;;;;;5131382;27;20026;-74
2023/04/02 08:22:15;;;;;;;9.77;3.67;;;9.20;99.90;;;;;;5131511;27;20130;-74
2023/04/02 08:24:41;;;;;;;10.18;4.15;;;9.20;99.90;;;;;;5131838;27;20059;-74
2023/04/02 08:27:07;;;;;;;12.57;5.13;;;9.20;99.90;;;;;;5130969;27;20030;-74
2023/04/02 08:29:33;;;;;;;8.00;4.03;;;9.20;99.90;;;;;;5131695;27;20027;-73
2023/04/02 08:32:00;;;;;;;6.72;4.18;;;9.30;99.90;;;;;;5131136;27;20033;-74
2023/04/02 08:34:26;;;;;;;8.93;3.38;;;9.30;99.90;;;;;;5131491;27;20528;-74
2023/04/02 08:36:56;;;;;;;8.98;3.17;;;9.30;99.90;;;;;;5130669;27;20031;-74
2023/04/02 08:39:22;;;;;;;7.47;4.03;;;9.40;99.90;;;;;;5131739;27;20129;-74
2023/04/02 08:42:06;;;;;;;5.93;3.00;;;9.50;99.90;;;;;;5130803;27;20031;-76
2023/04/02 08:44:48;;;;;;;5.93;3.20;;;9.50;99.90;;;;;;5131206;27;20079;-74
2023/04/02 08:47:18;;;;;;;4.47;2.80;;;9.40;99.90;;;;;;5131002;27;20027;-75
2023/04/02 08:49:50;;;;;;;5.10;2.78;;;9.30;99.90;;;;;;5112691;27;20419;-75
2023/04/02 08:52:34;;;;;;;6.97;3.33;;;9.30;99.90;;;;;;5131285;27;20031;-74
2023/04/02 08:55:01;;;;;;;5.70;2.70;;;9.40;99.90;;;;;;5130496;27;20107;-73
2023/04/02 08:57:32;;;;;;;5.50;2.97;;;9.30;99.90;;;;;;5131100;27;20029;-73
2023/04/02 09:00:19;;;;;;;6.53;3.03;;;9.30;99.90;;;;;;5130156;27;20027;-75
2023/04/02 09:03:13;;;;;;;7.97;3.38;;;9.40;99.90;;;;;;5131192;27;20126;-73
2023/04/02 09:05:42;;;;;;;5.38;3.78;;;9.70;99.90;;;;;;5121665;27;20039;-74
2023/04/02 09:08:19;;;;;;;7.35;4.03;;;10.00;99.90;;;;;;5130925;28;20035;-75
2023/04/02 09:10:53;;;;;;;5.05;3.72;;;10.20;99.90;;;;;;5131327;28;20415;-74
2023/04/02 09:13:30;;;;;;;6.68;3.92;;;10.20;99.90;;;;;;5131465;28;20023;-74
2023/04/02 09:16:12;;;;;;;6.88;3.33;;;10.30;99.90;;;;;;5131982;28;20079;-75
2023/04/02 09:18:38;;;;;;;4.77;3.33;;;10.20;99.90;;;;;;5130649;28;20360;-75
2023/04/02 09:21:31;;;;;;;4.45;2.75;;;10.10;99.90;;;;;;5130208;28;20027;-75
2023/04/02 09:23:57;;;;;;;;;;;10.20;99.90;;;;;;5130865;28;20045;-75
2023/04/02 09:26:29;;;;;;;3.33;2.80;;;10.30;99.90;;;;;;5130705;28;20002;-75
2023/04/02 09:29:07;;;;;;;4.10;2.58;;;10.40;99.90;;;;;;5130906;28;20035;-76
2023/04/02 09:31:42;;;;;;;8.10;2.83;;;10.60;99.90;;;;;;5131757;28;20027;-74
2023/04/02 09:34:29;;;;;;;4.40;2.28;;;10.60;99.90;;;;;;5131430;28;20045;-73
2023/04/02 09:36:55;;;;;;;3.28;2.58;;;10.60;99.90;;;;;;5131150;28;20023;-75
2023/04/02 09:39:25;;;;;;;4.43;2.88;;;10.60;99.90;;;;;;5131647;28;20028;-76
2023/04/02 09:41:52;;;;;;;3.85;2.60;;;10.70;99.90;;;;;;5117302;28;20031;-75
2023/04/02 09:44:24;;;;;;;6.00;2.35;;;10.80;99.90;;;;;;5111124;28;20127;-75
2023/04/02 09:46:54;;;;;;;2.90;2.30;;;10.90;99.90;;;;;;5110851;28;20103;-79
2023/04/02 09:49:24;;;;;;;2.60;1.95;;;11.00;99.90;;;;;;5110319;28;20027;-74
2023/04/02 09:52:11;;;;;;;2.78;1.88;;;11.10;99.90;;;;;;5110399;28;20325;-78
2023/04/02 09:54:43;;;;;;;3.78;2.13;;;11.10;99.90;;;;;;5110886;28;20040;-73
2023/04/02 09:57:22;;;;;;;2.75;1.67;;;11.10;99.90;;;;;;5110500;28;20024;-74
2023/04/02 10:00:15;;;;;;;3.65;2.03;;;11.00;99.90;;;;;;5113743;28;20028;-73
2023/04/02 10:02:42;;;;;;;1.58;1.40;;;10.90;99.90;;;;;;5114972;28;20020;-75
2023/04/02 10:05:22;;;;;;;3.45;1.45;;;10.90;99.90;;;;;;5114126;28;20028;-75
2023/04/02 10:07:53;;;;;;;3.00;1.60;;;10.90;99.90;;;;;;5114371;28;20031;-75
2023/04/02 10:10:18;;;;;;;3.60;1.48;;;10.80;99.90;;;;;;5113747;28;20028;-73
2023/04/02 10:12:58;;;;;;;2.25;1.27;;;10.80;99.90;;;;;;5095145;28;20047;-73
2023/04/02 10:15:38;;;;;;;1.27;1.17;;;10.80;99.90;;;;;;5113714;28;20084;-74
2023/04/02 10:18:15;;;;;;;1.73;1.20;;;10.90;99.90;;;;;;5112768;28;20376;-74
2023/04/02 10:20:44;;;;;;;2.35;1.40;;;10.90;99.90;;;;;;5113602;28;20061;-74
2023/04/02 10:23:17;;;;;;;2.63;1.52;;;11.00;99.90;;;;;;5112442;28;20054;-75
2023/04/02 10:26:02;;;;;;;2.13;1.10;;;11.10;99.90;;;;;;5113042;28;20418;-75
2023/04/02 10:29:03;;;;;;;1.42;1.02;;;11.30;99.90;;;;;;5112810;28;20473;-75
2023/04/02 10:32:07;;;;;;;1.33;1.15;;;11.40;99.90;;;;;;5113114;28;20066;-74
2023/04/02 10:34:57;;;;;;;3.78;1.20;;;11.60;99.90;;;;;;5113891;28;20035;-75
2023/04/02 10:37:37;;;;;;;2.08;1.13;;;11.70;99.90;;;;;;5113872;28;20031;-74
2023/04/02 10:40:19;;;;;;;1.33;1.00;;;11.70;99.90;;;;;;5113164;28;20024;-74
2023/04/02 10:42:57;;;;;;;1.33;1.20;;;11.80;99.90;;;;;;5113728;28;20033;-74
2023/04/02 10:45:37;;;;;;;1.33;1.20;;;11.70;99.90;;;;;;5114035;28;20047;-74
2023/04/02 10:48:13;;;;;;;1.40;1.30;;;11.60;99.90;;;;;;5113111;28;20113;-74
2023/04/02 10:51:14;;;;;;;3.17;1.13;;;11.60;99.90;;;;;;5095709;28;20400;-74
2023/04/02 10:54:20;;;;;;;2.38;1.33;;;11.50;99.90;;;;;;5078791;28;20085;-74
2023/04/02 10:56:48;;;;;;;1.02;0.90;;;11.40;99.90;;;;;;5114145;28;20051;-74
2023/04/02 10:59:22;;;;;;;2.17;1.15;;;11.50;99.90;;;;;;5113723;28;20094;-74
2023/04/02 11:01:50;;;;;;;3.00;1.30;;;11.60;99.90;;;;;;5114766;28;20055;-74
2023/04/02 11:04:22;;;;;;;2.13;1.50;;;11.70;99.90;;;;;;5114133;28;20606;-74
2023/04/02 11:06:57;;;;;;;1.23;1.13;;;11.60;99.90;;;;;;5114139;28;20429;-75
2023/04/02 11:09:30;;;;;;;1.42;1.33;;;11.60;99.90;;;;;;5112810;28;20046;-75
2023/04/02 11:11:58;;;;;;;3.17;1.20;;;11.70;99.90;;;;;;5112974;28;20027;-81
2023/04/02 11:14:30;;;;;;;2.10;1.42;;;11.60;99.90;;;;;;5112973;28;20039;-75
2023/04/02 11:16:59;;;;;;;3.55;1.52;;;11.70;99.90;;;;;;5113227;28;20476;-80
2023/04/02 11:19:30;;;;;;;2.20;1.52;;;11.80;99.90;;;;;;5112847;28;20540;-74
2023/04/02 11:22:13;;;;;;;2.55;1.30;;;11.70;99.90;;;;;;5093680;28;20039;-80
2023/04/02 11:24:49;;;;;;;4.43;1.63;;;11.80;99.90;;;;;;5112066;28;20055;-74
2023/04/02 11:27:17;;;;;;;4.63;1.90;;;11.80;99.90;;;;;;5111079;28;20461;-75
2023/04/02 11:29:43;;;;;;;3.17;1.75;;;11.60;99.90;;;;;;5111841;28;20031;-75
2023/04/02 11:32:26;;;;;;;5.78;1.92;;;11.60;99.90;;;;;;5110784;28;20057;-75
2023/04/02 11:34:52;;;;;;;4.13;2.10;;;11.70;99.90;;;;;;5112015;28;20040;-75
2023/04/02 11:37:33;;;;;;;7.20;2.40;;;11.70;99.90;;;;;;5111489;28;20228;-75
2023/04/02 11:40:37;;;;;;;5.53;2.97;;;11.60;99.90;;;;;;5110991;28;20387;-80
2023/04/02 11:43:34;;;;;;;5.80;3.47;;;11.60;99.90;;;;;;5106656;28;20047;-75
2023/04/02 11:46:05;;;;;;;6.75;4.05;;;11.50;99.90;;;;;;5111469;28;20027;-80
2023/04/02 11:48:34;;;;;;;11.15;4.55;;;11.70;99.90;;;;;;5111809;28;20031;-75
2023/04/02 11:51:23;;;;;;;9.95;3.88;;;11.70;99.90;;;;;;5111210;28;20401;-79
2023/04/02 11:53:52;;;;;;;11.57;3.75;;;11.80;99.90;;;;;;5095251;28;20039;-75
2023/04/02 11:56:24;;;;;;;8.85;3.72;;;11.80;99.90;;;;;;5111037;28;20020;-75
2023/04/02 11:59:16;;;;;;;7.85;3.88;;;11.50;99.90;;;;;;5111613;28;20027;-74
2023/04/02 12:02:13;;;;;;;12.82;4.13;;;11.60;99.90;;;;;;5110848;28;20106;-75
2023/04/02 12:04:56;;;;;;;11.35;4.47;;;11.90;99.90;;;;;;5111650;28;20085;-75
2023/04/02 12:07:36;;;;;;;;;;;11.90;99.90;;;;;;5111319;28;20700;-75
2023/04/02 12:10:16;;;;;;;15.00;5.18;;;12.00;99.90;;;;;;5110846;28;19904;-80
2023/04/02 12:12:42;;;;;;;8.32;4.20;;;12.00;99.90;;;;;;5111543;28;20122;-75
2023/04/02 12:15:35;;;;;;;9.15;4.15;;;12.20;99.90;;;;;;5110498;28;20102;-75
2023/04/02 12:18:21;;;;;;;9.00;4.35;;;12.30;99.90;;;;;;5110912;28;20051;-79
2023/04/02 12:20:56;;;;;;;15.05;4.50;;;12.40;99.90;;;;;;5111239;28;20114;-74
2023/04/02 12:23:28;;;;;;;12.05;3.58;;;12.50;99.90;;;;;;5110074;28;20040;-74
2023/04/02 12:25:59;;;;;;;7.83;3.17;;;12.50;99.90;;;;;;5111027;28;20054;-74
2023/04/02 12:28:27;;;;;;;8.90;3.03;;;12.20;99.90;;;;;;5110631;28;20039;-75
2023/04/02 12:31:04;;;;;;;10.52;3.20;;;12.10;99.90;;;;;;5111020;28;20031;-75
2023/04/02 12:33:36;;;;;;;11.85;3.30;;;11.90;99.90;;;;;;5119152;27;20405;-75
2023/04/02 12:36:27;;;;;;;8.50;2.72;;;12.10;99.90;;;;;;5131428;27;20106;-79
2023/04/02 12:38:55;;;;;;;8.82;3.35;;;12.20;99.90;;;;;;5131059;27;20056;-75
2023/04/02 12:41:22;;;;;;;9.77;3.05;;;12.30;99.90;;;;;;5111837;27;20031;-75
2023/04/02 12:44:00;;;;;;;7.97;3.13;;;12.40;99.90;;;;;;5130941;27;20398;-75
2023/04/02 12:46:26;;;;;;;12.07;3.90;;;12.30;99.90;;;;;;5130543;27;20408;-75
2023/04/02 12:48:54;;;;;;;12.13;3.40;;;12.10;99.90;;;;;;5131452;27;20027;-75
2023/04/02 12:51:20;;;;;;;10.50;3.72;;;12.10;99.90;;;;;;5130610;27;20040;-75
2023/04/02 12:53:51;;;;;;;10.45;3.88;;;12.20;99.90;;;;;;5131438;27;20024;-75
2023/04/02 12:56:22;;;;;;;8.88;4.10;;;12.30;99.90;;;;;;5130758;27;20110;-75
2023/04/02 12:58:54;;;;;;;9.38;3.90;;;12.30;99.90;;;;;;5131080;27;20055;-74
2023/04/02 13:01:26;;;;;;;8.75;3.45;;;12.30;99.90;;;;;;5130425;27;20027;-75
2023/04/02 13:04:03;;;;;;;9.10;3.45;;;12.30;99.90;;;;;;5131144;27;20027;-74
2023/04/02 13:06:29;;;;;;;10.25;3.25;;;12.30;99.90;;;;;;5130554;27;20023;-75
2023/04/02 13:08:56;;;;;;;6.63;3.58;;;12.20;99.90;;;;;;5131086;27;20053;-75
2023/04/02 13:11:32;;;;;;;7.85;3.05;;;12.30;99.90;;;;;;5130414;28;20077;-75
2023/04/02 13:14:01;;;;;;;14.50;4.20;;;12.50;99.90;;;;;;5131357;28;20084;-75
2023/04/02 13:16:33;;;;;;;9.70;3.50;;;12.60;99.90;;;;;;5130434;28;20027;-75
2023/04/02 13:19:11;;;;;;;8.75;3.42;;;12.30;99.90;;;;;;5131021;28;20480;-75
2023/04/02 13:21:37;;;;;;;10.75;3.30;;;12.50;99.90;;;;;;5131443;28;20045;-75
2023/04/02 13:24:03;;;;;;;10.23;3.50;;;12.70;99.90;;;;;;5130736;27;20071;-75
2023/04/02 13:26:29;;;;;;;9.27;3.67;;;12.70;99.90;;;;;;5111784;28;20059;-75
2023/04/02 13:28:56;;;;;;;11.38;3.92;;;12.70;99.90;;;;;;5130684;28;20028;-74
2023/04/02 13:31:22;;;;;;;7.15;3.13;;;12.60;99.90;;;;;;5129946;28;20039;-75
2023/04/02 13:33:48;;;;;;;9.55;3.47;;;12.40;99.90;;;;;;5132379;27;20421;-75